ADDS METAR Data INFO
IDs: Format: Raw Decoded Include TAF

Data at: 2335 UTC 25 Feb 2018

KSBN 252254Z 24015G24KT 10SM CLR 05/M06 A3002 RMK AO2 SLP172 T00501061
KSBN 252154Z 24017G23KT 10SM FEW048 06/M04 A2999 RMK AO2 SLP161 T00561044
KSBN 252054Z 23013G22KT 10SM FEW042 06/M04 A2998 RMK AO2 PK WND 24027/2014 SLP156 T00561039 53010
KSBN 251954Z 25018G23KT 10SM FEW040 06/M04 A2996 RMK AO2 PK WND 23030/1904 SLP148 T00561039
KSBN 251854Z 24020G28KT 10SM SCT035 06/M03 A2995 RMK AO2 PK WND 23029/1823 SLP145 T00561033
KSBN 251759Z 23017G27KT 10SM BKN029 04/M03 A2995 RMK AO2 T00441028
KSBN 251754Z 24022G27KT 10SM SCT029 SCT035 04/M03 A2995 RMK AO2 PK WND 25030/1702 SLP146 T00441033 10044 20011 51025
KSBN 251702Z 25023G30KT 10SM BKN028 04/M03 A2993 RMK AO2 PK WND 25030/1702 T00391028
KSBN 251654Z 24020G28KT 10SM BKN030 03/M03 A2993 RMK AO2 PK WND 24029/1614 SLP140 T00281033
KSBN 251633Z 24021G29KT 10SM BKN027 OVC032 03/M03 A2992 RMK AO2 PK WND 24029/1614 T00281033
KSBN 251618Z 23021G29KT 10SM BKN030 03/M03 A2991 RMK AO2 PK WND 24029/1614 T00331033
KSBN 251554Z 25018G25KT 10SM BKN027 BKN032 03/M03 A2990 RMK AO2 PK WND 25029/1539 SLP131 T00281033
KSBN 251454Z 25019G28KT 10SM OVC027 02/M03 A2987 RMK AO2 PK WND 25032/1355 SLP123 T00171033 53033
KSBN 251354Z 24027G35KT 10SM OVC024 01/M04 A2984 RMK AO2 PK WND 24035/1353 SLP111 T00111039
KSBN 251254Z 24012KT 10SM OVC020 01/M02 A2980 RMK AO2 SLP097 T00111022
KSBN 251154Z 25016G25KT 10SM OVC023 01/M02 A2977 RMK AO2 PK WND 26034/1127 SLP089 60002 70002 T00111022 10111 20011 51063
KSBN 251054Z 25019G25KT 10SM OVC021 02/M02 A2972 RMK AO2 PK WND 25031/1005 SLP071 T00221017
KSBN 250954Z AUTO 25021G26KT 10SM BKN016 OVC021 03/01 A2967 RMK AO2 PK WND 25038/0923 SLP051 T00330006
KSBN 250854Z AUTO 25021G35KT 10SM BKN019 OVC026 07/04 A2958 RMK AO2 PK WND 25036/0843 SLP022 60002 T00670039 53025
KSBN 250756Z AUTO 26022G33KT 10SM SCT007 BKN015 OVC039 11/09 A2951 RMK AO2 PK WND 27026/0756 T01060089
KSBN 250754Z AUTO 26021G33KT 10SM BKN007 BKN013 OVC039 11/09 A2951 RMK AO2 PK WND 25033/0749 RAE54 CIG 005V010 PRESRR SLP995 P0001 T01060089
KSBN 250723Z AUTO 20015G23KT 5SM -RA BR BKN006 OVC011 10/09 A2948 RMK AO2 CIG 003V009 P0001 T01000089
KSBN 250704Z AUTO 14016G24KT 3SM -RA BR OVC004 08/07 A2948 RMK AO2 CIG 003V008 P0001 T00780072
KSBN 250654Z AUTO 15012KT 2 1/2SM -RA BR OVC004 07/07 A2947 RMK AO2 RAB01 SLP984 P0001 T00720067
KSBN 250554Z AUTO 13012KT 8SM OVC004 06/06 A2951 RMK AO2 SLP996 60000 T00610056 10061 20033 56034
KSBN 250551Z AUTO 13014KT 8SM OVC004 06/06 A2951 RMK AO2
KSBN 250454Z AUTO 12016KT 10SM OVC006 06/04 A2955 RMK AO2 PRESFR SLP010 T00560044 400560011
KSBN 250354Z 12015KT 10SM OVC006 04/03 A2961 RMK AO2 PK WND 12031/0258 SLP031 T00440033
KSBN 250254Z 12022G31KT 9SM OVC006 04/03 A2967 RMK AO2 PK WND 12031/0252 RAE19 PRESFR SLP052 P0000 60000 T00390028 58063
KSBN 250154Z 11018G27KT 6SM -RA BR OVC009 03/02 A2975 RMK AO2 PK WND 11027/0146 RAB41 SLP079 P0000 T00330022
KSBN 250054Z 12016G27KT 10SM OVC009 04/02 A2982 RMK AO2 PK WND 12027/0046 SLP105 T00390022
KSBN 242354Z 12017G22KT 8SM OVC009 04/02 A2986 RMK AO2 SLP117 T00390022 10050 20039 58033
KSBN 242347Z 12015G24KT 8SM OVC009 04/02 A2986 RMK AO2 T00390022
KSBN 242254Z 10014G20KT 7SM OVC010 04/02 A2991 RMK AO2 SLP135 T00440022
KSBN 242154Z 11013G21KT 7SM OVC011 04/02 A2994 RMK AO2 SLP146 T00440022
KSBN 242054Z 11014G22KT 8SM OVC011 04/02 A2996 RMK AO2 SLP151 T00440017 56038
KSBN 241954Z 10011G18KT 8SM OVC013 04/02 A2999 RMK AO2 SLP163 T00440017
KSBN 241854Z 10014G20KT 7SM OVC013 04/02 A3004 RMK AO2 SLP178 T00440017
KSBN 241754Z 10012KT 9SM OVC015 04/01 A3007 RMK AO2 SLP190 T00440011 10050 20011 58034
KSBN 241654Z 10014KT 9SM OVC015 04/01 A3012 RMK AO2 SLP206 T00390006
KSBN 241554Z 10008KT 9SM BKN014 OVC100 03/00 A3016 RMK AO2 SLP219 T00330000
KSBN 241454Z 10008KT 9SM OVC014 02/M01 A3018 RMK AO2 SLP226 T00221006 58002
KSBN 241354Z 09006KT 10SM OVC014 02/M01 A3018 RMK AO2 SLP228 T00171011
KSBN 241340Z 09007KT 10SM OVC014 02/M01 A3017 RMK AO2 T00171011
KSBN 241254Z 08004KT 10SM BKN016 OVC090 02/M02 A3019 RMK AO2 SLP230 T00171017
KSBN 241154Z 08006KT 10SM BKN016 OVC095 01/M02 A3018 RMK AO2 SLP227 70009 T00111017 10022 20011 58012